Vac, Hungary
Current Conditions -  °F | °C
As of 4:00 PM on Saturday 22 Nov 2014 (Local Time) from LHBP Reporting Station
Overcast Overcast  
Wind Chill: 45°   Ceiling: 3400
Heat Index: 45°   Visibility: 4mi
Dew Point: 39°   Wind: 3mph
Humidity: 81%   Direction: NA
Pressure: 30.33"   Gusts: NA
Location:  47.79°N, 19.13°E
Report Text: LHBP 221400Z VRB03KT 7000 OVC034 07/04 Q1027 NOSIG
Loading
Personal Weather Stations






























Interactive Weather Map New forecast layout! Learn more

10-Day Weather Forecast

Advertisements
Track Severe Weather on mobile